Hungry Horse, Montana
Current Conditions -  °F | °C
As of 4:55 AM on Sunday 25 Jan 2015 (Local Time) from KGPI Reporting Station
Overcast Overcast  
Wind Chill: 29°   Ceiling: 3700
Heat Index: 36°   Visibility: 10mi
Dew Point: 35°   Wind: 9mph
Humidity: 97%   Direction: 220°SW
Pressure: 30.15"   Gusts: NA
Location:  48.39°N, 114.06°W
Report Text: KGPI 251155Z AUTO 22008KT 10SM BKN037 OVC046 02/02 A3015 RMK AO2 SLP229 60000 70004 T00220017 10033 20017 58009
Loading
Personal Weather Stations






























Interactive Weather Map New forecast layout! Learn more

10-Day Weather Forecast

Advertisements
Track Severe Weather on mobile